Time;durP1;ratioP1;P1;durP2;ratioP2;P2;SDS_P1;SDS_P2;PMS_P1;PMS_P2;Temp;Humidity;BMP_temperature;BMP_pressure;BME280_temperature;BME280_humidity;BME280_pressure;Samples;Min_cycle;Max_cycle;Signal;HPM_P1;HPM_P2
2023/06/27 00:00:34;;;;;;;7.72;2.97;;;;;;;19.44;93.21;-18549.84;5028680;28;20038;-77
2023/06/27 00:02:59;;;;;;;5.93;3.00;;;;;;;19.39;92.57;-18548.75;5029018;28;20041;-77
2023/06/27 00:05:25;;;;;;;5.88;2.75;;;;;;;19.28;92.88;-18545.63;5027454;28;20053;-77
2023/06/27 00:07:50;;;;;;;7.28;3.17;;;;;;;19.42;91.88;-18549.44;5027610;28;20056;-77
2023/06/27 00:10:16;;;;;;;8.82;3.00;;;;;;;19.31;93.47;-18546.56;5024742;28;20042;-77
2023/06/27 00:12:44;;;;;;;8.65;3.88;;;;;;;19.30;92.94;-18546.28;5017431;28;20048;-77
2023/06/27 00:15:10;;;;;;;5.50;2.90;;;;;;;19.49;91.50;-18551.19;5023121;28;20053;-77
2023/06/27 00:17:37;;;;;;;5.97;2.95;;;;;;;19.57;91.01;-18553.38;5021932;28;20044;-77
2023/06/27 00:20:04;;;;;;;9.32;3.53;;;;;;;19.73;89.57;-18557.59;5022058;28;20073;-77
2023/06/27 00:22:30;;;;;;;5.43;3.47;;;;;;;19.23;94.68;-18544.25;5021104;28;20118;-77
2023/06/27 00:24:55;;;;;;;7.63;3.15;;;;;;;18.96;97.30;-18537.16;5024169;28;20037;-77
2023/06/27 00:27:21;;;;;;;5.90;3.25;;;;;;;19.01;97.79;-18538.53;5040532;28;20052;-77
2023/06/27 00:29:47;;;;;;;8.10;3.30;;;;;;;18.85;99.27;-18534.31;5021514;28;20087;-77
2023/06/27 00:32:12;;;;;;;9.40;3.78;;;;;;;19.04;98.59;-18539.22;5023591;28;20059;-77
2023/06/27 00:34:38;;;;;;;8.90;3.75;;;;;;;19.02;98.28;-18538.81;5047277;22;20109;-77
2023/06/27 00:37:03;;;;;;;8.52;3.63;;;;;;;19.01;98.59;-18538.53;5025145;28;20045;-78
2023/06/27 00:39:29;;;;;;;7.13;3.65;;;;;;;18.99;99.29;-18537.84;5002653;28;20555;-77
2023/06/27 00:41:55;;;;;;;7.55;3.63;;;;;;;19.09;98.84;-18540.56;5004429;28;20046;-77
2023/06/27 00:44:20;;;;;;;5.93;3.30;;;;;;;18.91;100.00;-18535.94;5001359;28;20069;-77
2023/06/27 00:46:51;;;;;;;5.97;3.70;;;;;;;19.07;100.00;-18540.03;5001160;28;20037;-77
2023/06/27 00:49:18;;;;;;;6.88;3.90;;;;;;;18.94;100.00;-18536.63;5017427;28;20033;-77
2023/06/27 00:51:46;;;;;;;6.18;3.80;;;;;;;19.08;100.00;-18540.44;5022005;28;20127;-77
2023/06/27 00:54:13;;;;;;;6.78;3.85;;;;;;;18.97;100.00;-18537.44;5022641;28;20041;-77
2023/06/27 00:56:38;;;;;;;7.03;3.83;;;;;;;19.14;100.00;-18541.94;5016271;28;20045;-77
2023/06/27 00:59:05;;;;;;;6.70;4.00;;;;;;;19.13;100.00;-18541.66;5019815;28;20033;-77
2023/06/27 01:01:31;;;;;;;6.35;3.85;;;;;;;19.07;100.00;-18540.03;5021700;28;20095;-78
2023/06/27 01:03:56;;;;;;;7.20;4.03;;;;;;;18.98;100.00;-18537.72;5022405;28;20482;-78
2023/06/27 01:07:02;;;;;;;7.85;4.03;;;;;;;18.81;100.00;-18533.06;5023908;28;21049;-77
2023/06/27 01:09:31;;;;;;;8.15;4.25;;;;;;;18.98;100.00;-18537.72;5016812;28;20053;-79
2023/06/27 01:12:11;;;;;;;7.55;4.35;;;;;;;18.84;100.00;-18534.03;5020250;28;20087;-77
2023/06/27 01:14:41;;;;;;;6.68;4.10;;;;;;;18.89;100.00;-18535.25;5021872;28;20045;-78
2023/06/27 01:17:07;;;;;;;7.90;4.07;;;;;;;19.01;100.00;-18538.53;5021711;28;20038;-77
2023/06/27 01:19:34;;;;;;;8.05;4.22;;;;;;;19.00;100.00;-18538.25;5011644;28;20061;-79
2023/06/27 01:22:05;;;;;;;6.72;3.80;;;;;;;18.88;100.00;-18535.00;5001386;28;20595;-77
2023/06/27 01:24:31;;;;;;;8.43;4.03;;;;;;;19.07;100.00;-18540.16;5001377;28;20042;-78
2023/06/27 01:26:57;;;;;;;8.23;4.07;;;;;;;18.89;100.00;-18535.25;5003121;28;20617;-78
2023/06/27 01:29:22;;;;;;;6.78;4.22;;;;;;;19.04;100.00;-18539.34;5002175;28;20046;-78
2023/06/27 01:32:06;;;;;;;7.05;3.75;;;;;;;18.85;100.00;-18534.31;5001074;28;20157;-77
2023/06/27 01:34:34;;;;;;;9.18;4.00;;;;;;;18.83;100.00;-18533.63;5001365;28;20098;-78
2023/06/27 01:37:24;;;;;;;7.60;4.20;;;;;;;18.71;100.00;-18530.47;5002761;28;20046;-76
2023/06/27 01:39:58;;;;;;;6.28;4.03;;;;;;;18.68;100.00;-18529.81;5000107;28;20041;-77
2023/06/27 01:42:28;;;;;;;6.78;3.72;;;;;;;18.61;100.00;-18527.88;5005084;28;20492;-77
2023/06/27 01:44:54;;;;;;;7.53;4.13;;;;;;;18.55;100.00;-18526.25;4999628;28;20057;-77
2023/06/27 01:47:21;;;;;;;8.40;3.65;;;;;;;18.57;100.00;-18526.66;4998020;28;20038;-77
2023/06/27 01:49:47;;;;;;;5.55;3.55;;;;;;;18.58;100.00;-18526.94;4999699;28;20763;-77
2023/06/27 01:52:12;;;;;;;8.55;4.57;;;;;;;18.46;100.00;-18523.94;5005226;28;20124;-77
2023/06/27 01:54:43;;;;;;;6.47;3.92;;;;;;;18.51;100.00;-18525.03;5000960;28;20049;-77
2023/06/27 01:57:08;;;;;;;9.38;4.30;;;;;;;18.46;100.00;-18523.81;5002673;28;20643;-77
2023/06/27 01:59:34;;;;;;;6.53;4.20;;;;;;;18.39;100.00;-18521.91;5014806;28;20103;-77
2023/06/27 02:02:00;;;;;;;7.05;4.32;;;;;;;18.29;100.00;-18519.16;5018310;28;20042;-78
2023/06/27 02:04:25;;;;;;;8.50;4.13;;;;;;;18.26;100.00;-18518.63;5020100;28;20111;-80
2023/06/27 02:06:50;;;;;;;9.80;4.20;;;;;;;18.15;100.00;-18515.63;5001703;28;20460;-77
2023/06/27 02:09:16;;;;;;;7.65;4.20;;;;;;;18.22;100.00;-18517.41;5002483;28;20100;-78
2023/06/27 02:11:41;;;;;;;7.65;4.70;;;;;;;17.95;100.00;-18510.16;5000860;28;20058;-78
2023/06/27 02:14:06;;;;;;;7.78;4.30;;;;;;;17.98;100.00;-18510.97;5002061;28;20070;-77
2023/06/27 02:16:32;;;;;;;9.63;5.20;;;;;;;17.88;100.00;-18508.25;5002858;28;20141;-78
2023/06/27 02:18:57;;;;;;;8.55;4.32;;;;;;;17.79;100.00;-18506.06;5010444;28;20072;-78
2023/06/27 02:21:23;;;;;;;8.88;5.03;;;;;;;17.73;100.00;-18504.44;5022535;28;20126;-76
2023/06/27 02:23:48;;;;;;;8.02;4.97;;;;;;;17.77;100.00;-18505.38;5017271;28;20413;-78
2023/06/27 02:26:14;;;;;;;10.20;4.43;;;;;;;17.81;100.00;-18506.63;5013603;28;20061;-78
2023/06/27 02:28:39;;;;;;;7.47;4.60;;;;;;;17.95;100.00;-18510.16;5008547;28;20046;-77
2023/06/27 02:31:04;;;;;;;7.72;4.93;;;;;;;17.92;100.00;-18509.47;5003006;28;20049;-78
2023/06/27 02:33:30;;;;;;;7.13;4.22;;;;;;;18.03;100.00;-18512.34;5002134;28;20057;-78
2023/06/27 02:35:55;;;;;;;8.98;5.00;;;;;;;17.93;100.00;-18509.75;5017686;28;20044;-77
2023/06/27 02:38:21;;;;;;;7.90;4.28;;;;;;;18.01;100.00;-18511.81;5001415;28;20168;-77
2023/06/27 02:40:47;;;;;;;7.25;4.55;;;;;;;17.91;100.00;-18509.22;5000501;28;21080;-78
2023/06/27 02:43:12;;;;;;;5.72;4.03;;;;;;;18.03;100.00;-18512.34;5003156;28;20500;-78
2023/06/27 02:45:37;;;;;;;9.15;4.53;;;;;;;18.23;100.00;-18517.66;5000754;28;20045;-77
2023/06/27 02:48:03;;;;;;;7.60;4.53;;;;;;;18.34;100.00;-18520.53;5000325;28;20103;-78
2023/06/27 02:50:28;;;;;;;13.25;5.25;;;;;;;18.34;100.00;-18520.53;4998887;28;20045;-77
2023/06/27 02:52:54;;;;;;;9.70;5.20;;;;;;;18.32;100.00;-18520.13;5003603;28;20057;-77
2023/06/27 02:55:19;;;;;;;7.85;4.97;;;;;;;18.25;100.00;-18518.34;5001562;28;20045;-75
2023/06/27 02:57:44;;;;;;;9.25;4.63;;;;;;;18.30;100.00;-18519.44;5000052;28;20042;-78
2023/06/27 03:00:10;;;;;;;7.65;4.50;;;;;;;18.47;100.00;-18524.06;5006326;28;20045;-77
2023/06/27 03:02:35;;;;;;;6.88;4.90;;;;;;;18.41;100.00;-18522.44;5021897;28;20124;-78
2023/06/27 03:05:01;;;;;;;9.45;4.75;;;;;;;18.50;100.00;-18524.91;5017561;28;20041;-77
2023/06/27 03:07:26;;;;;;;10.30;5.60;;;;;;;18.54;100.00;-18525.84;5028078;28;20046;-78
2023/06/27 03:09:51;;;;;;;11.13;5.40;;;;;;;18.27;100.00;-18518.75;5017504;28;20034;-78
2023/06/27 03:12:16;;;;;;;8.68;4.65;;;;;;;18.40;100.00;-18522.16;5027802;28;20053;-78
2023/06/27 03:14:42;;;;;;;10.90;5.40;;;;;;;18.36;100.00;-18521.06;5026981;28;20053;-79
2023/06/27 03:17:08;;;;;;;7.90;5.07;;;;;;;18.33;100.00;-18520.41;5021806;28;20034;-77
2023/06/27 03:19:33;;;;;;;6.55;5.13;;;;;;;18.52;100.00;-18525.31;5003440;28;20053;-79
2023/06/27 03:21:58;;;;;;;12.52;5.90;;;;;;;18.52;100.00;-18525.44;5021320;28;20041;-78
2023/06/27 03:24:24;;;;;;;10.40;5.60;;;;;;;18.41;100.00;-18522.44;5013641;28;20033;-78
2023/06/27 03:26:49;;;;;;;9.68;5.90;;;;;;;18.44;100.00;-18523.41;5011667;28;20066;-77
2023/06/27 03:29:14;;;;;;;9.27;5.40;;;;;;;18.47;100.00;-18524.22;5015451;28;20128;-77
2023/06/27 03:31:40;;;;;;;10.15;5.72;;;;;;;18.53;100.00;-18525.56;5004464;28;20046;-77
2023/06/27 03:34:05;;;;;;;8.45;5.80;;;;;;;18.39;100.00;-18522.03;5004025;28;20069;-77
2023/06/27 03:36:33;;;;;;;8.50;5.85;;;;;;;18.37;100.00;-18521.47;5003518;28;20624;-77
2023/06/27 03:38:59;;;;;;;14.77;5.63;;;;;;;18.29;100.00;-18519.31;5005061;28;20064;-77
2023/06/27 03:41:24;;;;;;;11.63;5.22;;;;;;;18.37;100.00;-18521.47;5013020;28;20041;-77
2023/06/27 03:43:50;;;;;;;8.60;5.88;;;;;;;18.46;100.00;-18523.94;5010326;28;20053;-76
2023/06/27 03:46:15;;;;;;;10.27;5.50;;;;;;;18.49;100.00;-18524.75;5022270;28;20038;-77
2023/06/27 03:48:41;;;;;;;9.82;6.10;;;;;;;18.68;100.00;-18529.81;5002348;28;20073;-79
2023/06/27 03:51:06;;;;;;;10.68;5.90;;;;;;;18.63;100.00;-18528.44;5005457;28;20700;-78
2023/06/27 03:53:31;;;;;;;9.15;6.45;;;;;;;18.58;100.00;-18526.94;5003782;28;20455;-76
2023/06/27 03:55:57;;;;;;;8.10;5.53;;;;;;;18.69;100.00;-18530.06;5006646;28;20042;-78
2023/06/27 03:58:22;;;;;;;10.52;5.47;;;;;;;18.71;100.00;-18530.63;5003111;28;20133;-77
2023/06/27 04:00:52;;;;;;;8.52;5.20;;;;;;;18.66;100.00;-18529.13;5020160;28;20037;-78
2023/06/27 04:03:17;;;;;;;10.05;5.88;;;;;;;18.68;100.00;-18529.81;5014832;28;20034;-77
2023/06/27 04:05:43;;;;;;;15.75;5.50;;;;;;;18.86;100.00;-18534.44;5015687;28;20051;-78
2023/06/27 04:08:08;;;;;;;8.82;4.72;;;;;;;18.85;100.00;-18534.16;5022980;28;20099;-78
2023/06/27 04:10:33;;;;;;;10.23;5.78;;;;;;;18.78;100.00;-18532.25;5018662;28;20397;-80
2023/06/27 04:12:59;;;;;;;10.18;5.75;;;;;;;18.96;100.00;-18537.03;5022886;28;20045;-78
2023/06/27 04:15:24;;;;;;;11.27;5.85;;;;;;;18.93;100.00;-18536.50;5023951;28;20076;-78
2023/06/27 04:17:49;;;;;;;10.23;5.82;;;;;;;18.82;100.00;-18533.34;5023546;28;20401;-78
2023/06/27 04:20:15;;;;;;;9.38;5.28;;;;;;;18.80;100.00;-18532.81;5021850;28;20413;-79
2023/06/27 04:22:40;;;;;;;10.55;5.57;;;;;;;18.95;100.00;-18536.91;5025305;28;20045;-77
2023/06/27 04:25:10;;;;;;;10.00;6.00;;;;;;;18.85;100.00;-18534.16;5025690;28;20044;-77
2023/06/27 04:27:36;;;;;;;8.70;5.53;;;;;;;18.70;100.00;-18530.22;5021944;28;20041;-77
2023/06/27 04:30:01;;;;;;;10.07;5.40;;;;;;;18.61;100.00;-18527.88;5023301;28;20455;-76
2023/06/27 04:32:27;;;;;;;9.55;6.15;;;;;;;18.88;100.00;-18535.13;5024388;28;20443;-77
2023/06/27 04:34:52;;;;;;;10.43;6.20;;;;;;;19.08;100.00;-18540.31;5022706;28;20135;-76
2023/06/27 04:37:18;;;;;;;10.57;5.75;;;;;;;19.14;100.00;-18541.94;5025943;28;20072;-77
2023/06/27 04:39:44;;;;;;;8.50;5.55;;;;;;;19.42;100.00;-18549.28;5017835;28;20053;-77
2023/06/27 04:42:10;;;;;;;10.27;6.15;;;;;;;19.50;100.00;-18551.59;5021039;28;20050;-76
2023/06/27 04:44:35;;;;;;;9.85;6.28;;;;;;;19.14;100.00;-18542.06;5021792;28;20038;-78
2023/06/27 04:47:00;;;;;;;10.85;5.45;;;;;;;19.20;100.00;-18543.44;5022097;28;20077;-77
2023/06/27 04:49:26;;;;;;;12.35;6.22;;;;;;;19.05;100.00;-18539.63;5024650;28;20049;-77
2023/06/27 04:51:51;;;;;;;9.05;5.57;;;;;;;19.15;100.00;-18542.22;5016770;28;20041;-79
2023/06/27 04:54:16;;;;;;;10.60;6.72;;;;;;;19.20;100.00;-18543.44;5025642;28;20042;-77
2023/06/27 04:56:41;;;;;;;12.45;5.78;;;;;;;19.12;100.00;-18541.53;5023576;28;20041;-77
2023/06/27 04:59:07;;;;;;;9.02;6.07;;;;;;;19.17;100.00;-18542.88;5023485;28;20079;-77
2023/06/27 05:01:32;;;;;;;11.75;6.07;;;;;;;19.21;100.00;-18543.72;5025705;28;20057;-77
2023/06/27 05:04:04;;;;;;;13.55;6.45;;;;;;;19.25;100.00;-18544.78;5026975;28;20045;-77
2023/06/27 05:06:29;;;;;;;11.75;6.47;;;;;;;19.43;100.00;-18549.56;5025352;28;20042;-78
2023/06/27 05:08:55;;;;;;;11.32;7.18;;;;;;;19.34;100.00;-18547.25;5024647;28;20056;-76
2023/06/27 05:11:20;;;;;;;10.65;6.20;;;;;;;19.40;100.00;-18548.88;5024117;28;20411;-77
2023/06/27 05:13:45;;;;;;;17.70;7.03;;;;;;;19.28;100.00;-18545.75;5020330;28;20452;-76
2023/06/27 05:16:11;;;;;;;11.68;6.63;;;;;;;19.31;100.00;-18546.56;5039074;28;20100;-77
2023/06/27 05:18:36;;;;;;;16.38;6.82;;;;;;;19.59;100.00;-18554.06;5016304;28;20037;-79
2023/06/27 05:21:02;;;;;;;14.85;6.32;;;;;;;19.64;100.00;-18555.16;5040046;28;20041;-77
2023/06/27 05:23:27;;;;;;;13.18;7.20;;;;;;;19.55;100.00;-18552.97;5022847;28;20063;-77
2023/06/27 05:25:52;;;;;;;12.35;6.15;;;;;;;19.52;100.00;-18552.16;5025143;28;20041;-78
2023/06/27 05:28:18;;;;;;;10.70;6.28;;;;;;;19.66;100.00;-18555.69;5023082;28;20180;-78
2023/06/27 05:30:43;;;;;;;12.23;6.18;;;;;;;19.56;100.00;-18553.25;5019459;28;20042;-77
2023/06/27 05:33:08;;;;;;;18.02;6.68;;;;;;;19.92;100.00;-18562.78;5025288;28;20052;-78
2023/06/27 05:35:34;;;;;;;12.50;6.60;;;;;;;20.06;100.00;-18566.59;5023673;28;20037;-77
2023/06/27 05:37:59;;;;;;;13.38;6.80;;;;;;;20.24;100.00;-18571.34;5024796;28;20068;-77
2023/06/27 05:40:25;;;;;;;12.82;6.63;;;;;;;20.15;100.00;-18568.78;5024488;28;20530;-78
2023/06/27 05:42:50;;;;;;;12.93;6.15;;;;;;;20.21;100.00;-18570.41;5025004;28;20040;-76
2023/06/27 05:45:15;;;;;;;12.40;5.95;;;;;;;20.25;100.00;-18571.63;5024340;28;20139;-77
2023/06/27 05:47:42;;;;;;;14.73;7.38;;;;;;;20.44;100.00;-18576.66;5023754;28;20049;-77
2023/06/27 05:50:09;;;;;;;15.25;6.65;;;;;;;20.67;100.00;-18582.78;5022322;28;20045;-77
2023/06/27 05:52:34;;;;;;;14.70;6.88;;;;;;;20.83;100.00;-18587.00;5026985;28;20519;-77
2023/06/27 05:54:59;;;;;;;15.55;6.57;;;;;;;20.89;100.00;-18588.63;5027243;28;20041;-78
2023/06/27 05:57:25;;;;;;;12.93;6.55;;;;;;;20.92;100.00;-18589.31;5041054;28;20041;-77
2023/06/27 05:59:50;;;;;;;14.27;6.32;;;;;;;20.90;100.00;-18588.91;5022961;28;20377;-77
2023/06/27 06:02:15;;;;;;;12.00;6.10;;;;;;;20.94;100.00;-18589.88;5028092;28;20622;-77
2023/06/27 06:04:41;;;;;;;16.70;6.90;;;;;;;20.81;100.00;-18586.47;5025047;28;20124;-76
2023/06/27 06:07:06;;;;;;;13.20;6.47;;;;;;;21.12;100.00;-18594.63;5038028;28;20417;-77
2023/06/27 06:09:32;;;;;;;11.68;6.40;;;;;;;21.35;100.00;-18600.88;5025510;28;20275;-76
2023/06/27 06:11:57;;;;;;;12.40;5.45;;;;;;;21.37;100.00;-18601.41;5007628;28;20038;-77
2023/06/27 06:14:23;;;;;;;13.02;6.47;;;;;;;21.48;100.00;-18604.16;5010623;28;20058;-77
2023/06/27 06:16:48;;;;;;;16.20;7.05;;;;;;;21.36;100.00;-18601.00;5011873;28;20056;-78
2023/06/27 06:19:14;;;;;;;9.85;6.07;;;;;;;21.36;100.00;-18601.00;5017810;28;20034;-78
2023/06/27 06:21:40;;;;;;;10.80;6.35;;;;;;;21.69;100.00;-18609.72;5024256;28;20041;-77
2023/06/27 06:24:08;;;;;;;12.85;5.97;;;;;;;21.68;100.00;-18609.56;5027332;28;20072;-77
2023/06/27 06:26:35;;;;;;;12.13;6.72;;;;;;;21.45;100.00;-18603.31;5025621;28;20037;-79
2023/06/27 06:29:00;;;;;;;13.68;6.75;;;;;;;21.48;100.00;-18604.16;5023426;28;20044;-77
2023/06/27 06:31:26;;;;;;;12.93;6.18;;;;;;;21.47;100.00;-18604.00;5024976;28;20121;-77
2023/06/27 06:33:51;;;;;;;11.93;6.15;;;;;;;21.57;100.00;-18606.59;5027417;28;20099;-77
2023/06/27 06:36:18;;;;;;;16.02;7.28;;;;;;;21.39;100.00;-18601.97;5024805;28;20065;-78
2023/06/27 06:38:44;;;;;;;11.52;6.57;;;;;;;21.54;100.00;-18605.91;5026254;28;20496;-77
2023/06/27 06:41:09;;;;;;;14.50;6.90;;;;;;;21.61;100.00;-18607.81;5031109;22;20052;-76
2023/06/27 06:43:34;;;;;;;16.02;6.38;;;;;;;21.63;100.00;-18608.34;5006529;28;20117;-77
2023/06/27 06:46:00;;;;;;;17.17;8.15;;;;;;;21.57;100.00;-18606.72;5007866;28;20555;-76
2023/06/27 06:48:25;;;;;;;13.65;6.63;;;;;;;21.61;100.00;-18607.69;5006004;28;20392;-77
2023/06/27 06:50:51;;;;;;;14.70;6.97;;;;;;;21.61;100.00;-18607.69;5005193;28;20050;-77
2023/06/27 06:53:19;;;;;;;17.50;6.63;;;;;;;21.55;100.00;-18606.19;5005625;28;20460;-77
2023/06/27 06:55:44;;;;;;;11.35;5.55;;;;;;;21.32;100.00;-18600.06;5004966;28;20619;-77
2023/06/27 06:58:10;;;;;;;13.13;6.05;;;;;;;21.50;100.00;-18604.69;4991224;28;20042;-77
2023/06/27 07:00:36;;;;;;;17.50;7.10;;;;;;;21.55;100.00;-18606.03;4985575;28;20034;-78
2023/06/27 07:03:03;;;;;;;12.48;6.35;;;;;;;21.38;100.00;-18601.56;4987081;28;20046;-77
2023/06/27 07:05:28;;;;;;;14.60;6.97;;;;;;;21.46;100.00;-18603.59;4985324;28;20062;-77
2023/06/27 07:07:54;;;;;;;13.57;7.07;;;;;;;21.55;100.00;-18606.19;4979657;28;20073;-77
2023/06/27 07:10:19;;;;;;;19.55;7.07;;;;;;;21.70;100.00;-18610.13;4982355;28;20066;-77
2023/06/27 07:12:44;;;;;;;13.55;6.40;;;;;;;21.74;100.00;-18611.22;4995587;28;20065;-78
2023/06/27 07:15:10;;;;;;;12.32;6.72;;;;;;;21.93;100.00;-18616.09;5019996;28;20060;-77
2023/06/27 07:17:38;;;;;;;15.20;6.60;;;;;;;21.71;100.00;-18610.41;4994493;28;20781;-77
2023/06/27 07:20:04;;;;;;;14.27;7.00;;;;;;;21.96;100.00;-18617.06;5002724;28;20060;-77
2023/06/27 07:22:30;;;;;;;17.73;6.72;;;;;;;21.90;100.00;-18615.44;5013538;28;20492;-78
2023/06/27 07:24:55;;;;;;;13.70;7.03;;;;;;;21.96;100.00;-18616.91;5024352;28;20049;-79
2023/06/27 07:27:20;;;;;;;12.98;6.25;;;;;;;21.86;100.00;-18614.34;5023609;28;20092;-79
2023/06/27 07:29:46;;;;;;;15.80;6.97;;;;;;;21.76;100.00;-18611.63;5012481;28;20041;-78
2023/06/27 07:32:12;;;;;;;19.02;7.75;;;;;;;21.82;100.00;-18613.25;5005811;28;20050;-80
2023/06/27 07:34:39;;;;;;;19.63;6.45;;;;;;;21.67;100.00;-18609.31;5013524;28;20049;-78
2023/06/27 07:37:05;;;;;;;13.82;6.20;;;;;;;21.83;100.00;-18613.53;5015802;28;20613;-78
2023/06/27 07:39:31;;;;;;;12.48;6.15;;;;;;;21.85;100.00;-18614.19;5022750;28;20037;-78
2023/06/27 07:41:56;;;;;;;10.30;5.15;;;;;;;22.07;100.00;-18619.91;5009126;28;20054;-78
2023/06/27 07:44:21;;;;;;;11.93;5.68;;;;;;;22.18;100.00;-18622.75;4986089;28;20525;-79
2023/06/27 07:46:47;;;;;;;10.50;5.25;;;;;;;22.12;100.00;-18621.25;4990647;28;20444;-77
2023/06/27 07:49:12;;;;;;;12.05;5.30;;;;;;;22.07;100.00;-18619.91;5004741;28;20460;-77
2023/06/27 07:51:38;;;;;;;11.75;5.65;;;;;;;22.00;100.00;-18618.13;5002022;28;20133;-77
2023/06/27 07:54:03;;;;;;;8.82;4.47;;;;;;;22.28;100.00;-18625.63;5007432;28;20034;-78
2023/06/27 07:56:29;;;;;;;12.60;5.38;;;;;;;22.43;100.00;-18629.41;5008649;28;20431;-78
2023/06/27 07:58:55;;;;;;;10.70;4.95;;;;;;;22.50;100.00;-18631.31;5008887;28;20042;-77
2023/06/27 08:01:20;;;;;;;7.53;3.85;;;;;;;22.46;96.88;-18630.22;5010927;28;20049;-77
2023/06/27 08:03:46;;;;;;;7.97;3.40;;;;;;;22.50;90.87;-18631.31;5010284;28;20112;-77
2023/06/27 08:06:11;;;;;;;8.52;4.22;;;;;;;22.63;92.25;-18634.72;5010390;28;20042;-78
2023/06/27 08:08:36;;;;;;;10.52;3.90;;;;;;;22.80;92.50;-18639.19;4990063;28;20043;-78
2023/06/27 08:11:03;;;;;;;5.75;2.85;;;;;;;22.82;84.42;-18639.72;5008546;28;20075;-77
2023/06/27 08:13:28;;;;;;;8.00;3.30;;;;;;;22.77;86.43;-18638.50;5021460;28;20038;-77
2023/06/27 08:15:53;;;;;;;8.18;3.08;;;;;;;23.00;87.08;-18644.63;4997925;28;20050;-77
2023/06/27 08:18:19;;;;;;;10.40;3.13;;;;;;;22.85;83.48;-18640.56;4991571;28;20527;-77
2023/06/27 08:20:44;;;;;;;6.20;2.38;;;;;;;22.88;79.64;-18641.38;4991730;28;20032;-77
2023/06/27 08:23:10;;;;;;;10.15;3.10;;;;;;;23.03;79.41;-18645.44;4992097;28;20047;-77
2023/06/27 08:25:35;;;;;;;6.22;1.90;;;;;;;23.08;74.13;-18646.66;4991761;28;20169;-77
2023/06/27 08:28:00;;;;;;;5.68;2.00;;;;;;;23.25;68.17;-18651.13;4991959;28;20049;-77
2023/06/27 08:30:29;;;;;;;6.70;2.20;;;;;;;23.33;68.89;-18653.44;4988662;28;20120;-77
2023/06/27 08:32:56;;;;;;;7.50;2.50;;;;;;;23.38;67.25;-18654.66;4991918;28;20049;-77
2023/06/27 08:35:21;;;;;;;5.93;2.53;;;;;;;23.42;66.36;-18655.75;4991928;28;20041;-77
2023/06/27 08:37:47;;;;;;;7.07;2.80;;;;;;;23.51;64.12;-18658.19;4991307;28;20043;-77
2023/06/27 08:40:24;;;;;;;7.28;2.45;;;;;;;23.59;62.73;-18660.22;4989848;28;20068;-77
2023/06/27 08:42:50;;;;;;;7.07;1.88;;;;;;;23.47;63.22;-18657.09;4991599;28;20038;-77
2023/06/27 08:45:15;;;;;;;6.70;2.63;;;;;;;23.52;65.65;-18658.31;4992685;28;20042;-77
2023/06/27 08:47:44;;;;;;;7.78;3.20;;;;;;;23.59;66.16;-18660.34;4984506;28;20061;-77
2023/06/27 08:50:13;;;;;;;5.65;2.28;;;;;;;23.34;64.40;-18653.72;4984927;28;20117;-77
2023/06/27 08:52:43;;;;;;;6.55;2.55;;;;;;;23.73;61.03;-18663.88;4988022;28;20042;-77
2023/06/27 08:55:18;;;;;;;5.50;1.70;;;;;;;23.80;62.22;-18665.78;5000299;28;20051;-77
2023/06/27 08:57:46;;;;;;;7.05;2.75;;;;;;;23.85;62.14;-18667.13;4989025;28;20401;-77
2023/06/27 09:00:19;;;;;;;4.97;2.13;;;;;;;23.94;60.30;-18669.59;4986762;28;20096;-78
2023/06/27 09:02:45;;;;;;;4.43;1.85;;;;;;;24.15;56.29;-18675.13;4996506;28;20311;-78
2023/06/27 09:05:10;;;;;;;6.93;2.22;;;;;;;24.04;57.89;-18672.28;5005169;28;20070;-78
2023/06/27 09:07:36;;;;;;;6.30;2.20;;;;;;;24.05;59.06;-18672.56;5000866;28;20046;-78
2023/06/27 09:10:02;;;;;;;6.45;2.13;;;;;;;23.85;58.15;-18667.13;4987114;28;20054;-78
2023/06/27 09:12:27;;;;;;;4.93;1.92;;;;;;;23.77;62.95;-18664.97;4991625;28;20141;-78
2023/06/27 09:14:53;;;;;;;5.00;1.60;;;;;;;23.64;60.63;-18661.72;5005880;28;20050;-78
2023/06/27 09:17:18;;;;;;;5.88;1.63;;;;;;;23.52;61.54;-18658.47;5001323;28;20837;-78
2023/06/27 09:19:44;;;;;;;6.18;2.00;;;;;;;23.75;62.15;-18664.44;5005777;28;20046;-78
2023/06/27 09:22:10;;;;;;;5.97;2.75;;;;;;;23.93;60.74;-18669.19;5006721;28;20033;-78
2023/06/27 09:24:40;;;;;;;5.32;1.92;;;;;;;23.90;60.70;-18668.38;5003191;28;20485;-78
2023/06/27 09:27:06;;;;;;;5.90;1.73;;;;;;;24.03;59.73;-18671.88;5006900;28;20116;-78
2023/06/27 09:29:32;;;;;;;4.20;1.40;;;;;;;24.17;57.19;-18675.69;5010135;28;20516;-78
2023/06/27 09:32:07;;;;;;;5.60;1.70;;;;;;;24.22;57.80;-18676.91;4985414;28;20042;-78
2023/06/27 09:34:35;;;;;;;4.72;2.03;;;;;;;24.23;57.15;-18677.16;4984508;28;20034;-78
2023/06/27 09:37:03;;;;;;;5.65;1.67;;;;;;;24.13;57.14;-18674.47;4986147;28;20096;-78
2023/06/27 09:39:28;;;;;;;5.30;1.90;;;;;;;24.16;58.43;-18675.28;4986710;28;20038;-78
2023/06/27 09:41:54;;;;;;;5.22;1.60;;;;;;;24.14;54.53;-18674.72;4985325;28;20053;-78
2023/06/27 09:44:21;;;;;;;3.63;1.58;;;;;;;24.43;54.85;-18682.59;4985594;28;20073;-78
2023/06/27 09:46:48;;;;;;;6.40;1.67;;;;;;;24.68;53.28;-18689.22;4982616;28;20453;-78
2023/06/27 09:49:15;;;;;;;6.30;1.92;;;;;;;24.85;51.04;-18693.69;4983982;28;20038;-78
2023/06/27 09:51:45;;;;;;;5.32;1.63;;;;;;;24.75;50.14;-18691.13;4983775;28;20061;-78
2023/06/27 09:54:12;;;;;;;4.28;1.58;;;;;;;24.85;50.77;-18693.69;4984963;28;20039;-78
2023/06/27 09:56:37;;;;;;;5.40;1.70;;;;;;;24.98;51.37;-18697.09;4983457;28;20053;-78
2023/06/27 09:59:11;;;;;;;7.80;1.70;;;;;;;25.09;50.66;-18699.94;4984939;28;20074;-79
2023/06/27 10:01:38;;;;;;;4.60;1.67;;;;;;;25.45;49.93;-18709.53;4982383;28;20433;-79
2023/06/27 10:04:04;;;;;;;3.72;1.42;;;;;;;25.32;49.72;-18706.16;4983442;28;20053;-78
2023/06/27 10:06:30;;;;;;;5.63;1.65;;;;;;;25.43;51.95;-18709.00;5010860;28;20525;-78
2023/06/27 10:08:56;;;;;;;5.22;2.15;;;;;;;25.60;51.45;-18713.47;5003346;28;20041;-78
2023/06/27 10:11:23;;;;;;;5.15;1.65;;;;;;;25.51;49.46;-18711.16;5005302;28;20121;-79
2023/06/27 10:13:49;;;;;;;5.45;1.95;;;;;;;25.46;48.58;-18709.81;5010217;28;20045;-79
2023/06/27 10:16:15;;;;;;;3.80;1.40;;;;;;;25.57;49.33;-18712.66;5006207;28;20050;-79
2023/06/27 10:18:42;;;;;;;7.65;1.80;;;;;;;25.44;52.06;-18709.41;5001995;28;20038;-79
2023/06/27 10:21:08;;;;;;;5.65;1.58;;;;;;;25.56;49.53;-18712.53;4983057;28;20046;-79
2023/06/27 10:23:35;;;;;;;4.90;1.50;;;;;;;25.26;49.27;-18704.41;4982937;28;20046;-78
2023/06/27 10:26:01;;;;;;;5.90;1.90;;;;;;;25.25;48.42;-18704.25;5002076;28;20488;-79
2023/06/27 10:28:30;;;;;;;5.90;1.77;;;;;;;25.31;50.41;-18705.88;5015112;28;20060;-79
2023/06/27 10:30:56;;;;;;;5.07;1.40;;;;;;;25.16;47.17;-18701.81;5010580;28;20041;-79
2023/06/27 10:33:31;;;;;;;6.70;1.50;;;;;;;25.44;48.70;-18709.28;5003847;28;20054;-79
2023/06/27 10:36:02;;;;;;;4.30;1.50;;;;;;;25.40;48.16;-18708.31;5006601;28;20041;-79
2023/06/27 10:38:39;;;;;;;5.57;1.52;;;;;;;25.59;47.64;-18713.34;5006170;28;20116;-79
2023/06/27 10:41:06;;;;;;;8.07;1.98;;;;;;;25.61;47.35;-18713.75;5020086;28;20046;-79
2023/06/27 10:43:47;;;;;;;5.60;1.40;;;;;;;25.88;45.74;-18720.91;5007616;28;20425;-78
2023/06/27 10:46:26;;;;;;;3.67;1.10;;;;;;;25.57;45.38;-18712.66;4998683;28;20061;-78
2023/06/27 10:49:10;;;;;;;5.18;1.45;;;;;;;25.58;45.69;-18712.94;4992545;28;20049;-79
2023/06/27 10:51:43;;;;;;;3.67;1.25;;;;;;;25.50;44.89;-18710.75;4993714;28;20096;-79
2023/06/27 10:54:09;;;;;;;3.33;1.38;;;;;;;25.27;45.43;-18704.66;4988618;28;20054;-79
2023/06/27 10:56:38;;;;;;;5.45;1.33;;;;;;;25.31;45.30;-18705.75;4993805;28;20511;-79
2023/06/27 10:59:09;;;;;;;3.78;1.10;;;;;;;25.29;44.56;-18705.34;5007259;28;20120;-80
2023/06/27 11:01:35;;;;;;;7.30;1.65;;;;;;;25.39;44.87;-18708.06;5006807;28;20048;-79
2023/06/27 11:04:18;;;;;;;3.92;1.10;;;;;;;25.62;43.77;-18714.00;5006797;28;20046;-79
2023/06/27 11:06:47;;;;;;;4.53;1.40;;;;;;;25.81;43.69;-18719.00;5005218;28;20052;-79
2023/06/27 11:09:18;;;;;;;5.63;1.67;;;;;;;25.80;42.82;-18718.88;5006629;28;20038;-79
2023/06/27 11:12:14;;;;;;;3.80;1.00;;;;;;;25.57;41.03;-18712.78;5005771;28;20096;-79
2023/06/27 11:14:44;;;;;;;5.03;1.10;;;;;;;25.54;40.67;-18711.84;5004421;28;20049;-78